sensor_id;sensor_type;location;lat;lon;timestamp;P1;durP1;ratioP1;P2;durP2;ratioP2
45905;SDS011;31619;49.008;12.106;2023-03-20T00:01:14;5.00;;;4.50;;
45905;SDS011;31619;49.008;12.106;2023-03-20T00:03:41;5.07;;;4.60;;
45905;SDS011;31619;49.008;12.106;2023-03-20T00:06:17;5.07;;;4.60;;
45905;SDS011;31619;49.008;12.106;2023-03-20T00:08:51;4.75;;;4.35;;
45905;SDS011;31619;49.008;12.106;2023-03-20T00:14:09;5.65;;;5.15;;
45905;SDS011;31619;49.008;12.106;2023-03-20T00:16:38;8.77;;;5.45;;
45905;SDS011;31619;49.008;12.106;2023-03-20T00:19:06;5.95;;;5.35;;
45905;SDS011;31619;49.008;12.106;2023-03-20T00:21:38;7.43;;;4.80;;
45905;SDS011;31619;49.008;12.106;2023-03-20T00:24:04;5.82;;;5.32;;
45905;SDS011;31619;49.008;12.106;2023-03-20T00:26:32;6.68;;;5.43;;
45905;SDS011;31619;49.008;12.106;2023-03-20T00:28:59;5.32;;;4.82;;
45905;SDS011;31619;49.008;12.106;2023-03-20T00:31:30;5.90;;;5.35;;
45905;SDS011;31619;49.008;12.106;2023-03-20T00:33:58;6.07;;;5.30;;
45905;SDS011;31619;49.008;12.106;2023-03-20T00:36:26;5.80;;;5.13;;
45905;SDS011;31619;49.008;12.106;2023-03-20T00:38:52;5.80;;;5.22;;
45905;SDS011;31619;49.008;12.106;2023-03-20T00:41:25;5.32;;;4.82;;
45905;SDS011;31619;49.008;12.106;2023-03-20T00:43:52;5.80;;;4.55;;
45905;SDS011;31619;49.008;12.106;2023-03-20T00:46:23;6.93;;;5.15;;
45905;SDS011;31619;49.008;12.106;2023-03-20T00:48:48;4.97;;;4.55;;
45905;SDS011;31619;49.008;12.106;2023-03-20T00:51:14;5.05;;;4.40;;
45905;SDS011;31619;49.008;12.106;2023-03-20T00:53:40;5.50;;;4.63;;
45905;SDS011;31619;49.008;12.106;2023-03-20T00:56:08;6.15;;;4.35;;
45905;SDS011;31619;49.008;12.106;2023-03-20T00:58:48;6.07;;;4.30;;
45905;SDS011;31619;49.008;12.106;2023-03-20T01:01:14;5.68;;;4.57;;
45905;SDS011;31619;49.008;12.106;2023-03-20T01:03:39;6.95;;;4.50;;
45905;SDS011;31619;49.008;12.106;2023-03-20T01:06:05;5.38;;;4.88;;
45905;SDS011;31619;49.008;12.106;2023-03-20T01:08:33;5.85;;;4.45;;
45905;SDS011;31619;49.008;12.106;2023-03-20T01:10:58;5.30;;;4.80;;
45905;SDS011;31619;49.008;12.106;2023-03-20T01:13:25;4.63;;;4.22;;
45905;SDS011;31619;49.008;12.106;2023-03-20T01:15:52;4.60;;;4.20;;
45905;SDS011;31619;49.008;12.106;2023-03-20T01:18:20;5.30;;;4.80;;
45905;SDS011;31619;49.008;12.106;2023-03-20T01:20:48;5.18;;;4.68;;
45905;SDS011;31619;49.008;12.106;2023-03-20T01:23:14;5.53;;;4.30;;
45905;SDS011;31619;49.008;12.106;2023-03-20T01:25:40;4.97;;;4.55;;
45905;SDS011;31619;49.008;12.106;2023-03-20T01:28:10;5.05;;;4.32;;
45905;SDS011;31619;49.008;12.106;2023-03-20T01:30:48;5.47;;;4.95;;
45905;SDS011;31619;49.008;12.106;2023-03-20T01:33:15;5.10;;;4.70;;
45905;SDS011;31619;49.008;12.106;2023-03-20T01:35:43;5.03;;;4.63;;
45905;SDS011;31619;49.008;12.106;2023-03-20T01:38:19;4.93;;;4.53;;
45905;SDS011;31619;49.008;12.106;2023-03-20T01:40:57;4.90;;;4.50;;
45905;SDS011;31619;49.008;12.106;2023-03-20T01:43:29;5.20;;;4.72;;
45905;SDS011;31619;49.008;12.106;2023-03-20T01:51:20;5.10;;;4.60;;
45905;SDS011;31619;49.008;12.106;2023-03-20T01:54:50;5.55;;;4.40;;
45905;SDS011;31619;49.008;12.106;2023-03-20T01:56:53;5.20;;;4.72;;
45905;SDS011;31619;49.008;12.106;2023-03-20T01:59:28;4.80;;;4.40;;
45905;SDS011;31619;49.008;12.106;2023-03-20T02:01:56;5.57;;;5.07;;
45905;SDS011;31619;49.008;12.106;2023-03-20T02:04:25;7.07;;;5.75;;
45905;SDS011;31619;49.008;12.106;2023-03-20T02:06:55;5.55;;;4.97;;
45905;SDS011;31619;49.008;12.106;2023-03-20T02:09:20;5.60;;;4.63;;
45905;SDS011;31619;49.008;12.106;2023-03-20T02:11:46;4.78;;;4.38;;
45905;SDS011;31619;49.008;12.106;2023-03-20T02:14:13;5.30;;;4.85;;
45905;SDS011;31619;49.008;12.106;2023-03-20T02:16:39;5.55;;;5.05;;
45905;SDS011;31619;49.008;12.106;2023-03-20T02:19:06;6.63;;;4.97;;
45905;SDS011;31619;49.008;12.106;2023-03-20T02:24:43;4.75;;;4.35;;
45905;SDS011;31619;49.008;12.106;2023-03-20T02:27:24;5.82;;;4.88;;
45905;SDS011;31619;49.008;12.106;2023-03-20T02:33:16;5.78;;;5.13;;
45905;SDS011;31619;49.008;12.106;2023-03-20T02:52:19;5.72;;;5.18;;
45905;SDS011;31619;49.008;12.106;2023-03-20T03:00:27;6.05;;;4.80;;
45905;SDS011;31619;49.008;12.106;2023-03-20T03:03:00;5.05;;;4.55;;
45905;SDS011;31619;49.008;12.106;2023-03-20T03:05:45;5.22;;;4.72;;
45905;SDS011;31619;49.008;12.106;2023-03-20T03:08:16;5.20;;;4.80;;
45905;SDS011;31619;49.008;12.106;2023-03-20T03:11:19;5.25;;;4.75;;
45905;SDS011;31619;49.008;12.106;2023-03-20T03:13:39;5.10;;;4.60;;
45905;SDS011;31619;49.008;12.106;2023-03-20T03:16:10;5.28;;;4.78;;
45905;SDS011;31619;49.008;12.106;2023-03-20T03:18:39;5.70;;;5.13;;
45905;SDS011;31619;49.008;12.106;2023-03-20T03:21:06;5.70;;;5.13;;
45905;SDS011;31619;49.008;12.106;2023-03-20T03:23:38;7.85;;;5.80;;
45905;SDS011;31619;49.008;12.106;2023-03-20T03:26:11;6.15;;;5.55;;
45905;SDS011;31619;49.008;12.106;2023-03-20T03:28:43;7.13;;;5.35;;
45905;SDS011;31619;49.008;12.106;2023-03-20T03:31:15;6.55;;;5.93;;
45905;SDS011;31619;49.008;12.106;2023-03-20T03:33:44;8.65;;;5.38;;
45905;SDS011;31619;49.008;12.106;2023-03-20T03:36:16;6.18;;;5.57;;
45905;SDS011;31619;49.008;12.106;2023-03-20T03:38:51;6.30;;;5.80;;
45905;SDS011;31619;49.008;12.106;2023-03-20T03:46:53;6.80;;;5.97;;
45905;SDS011;31619;49.008;12.106;2023-03-20T03:49:28;8.15;;;5.80;;
45905;SDS011;31619;49.008;12.106;2023-03-20T03:52:02;6.13;;;5.60;;
45905;SDS011;31619;49.008;12.106;2023-03-20T03:57:04;6.35;;;4.95;;
45905;SDS011;31619;49.008;12.106;2023-03-20T03:59:34;6.78;;;6.25;;
45905;SDS011;31619;49.008;12.106;2023-03-20T04:02:04;6.07;;;5.47;;
45905;SDS011;31619;49.008;12.106;2023-03-20T04:04:33;7.13;;;6.47;;
45905;SDS011;31619;49.008;12.106;2023-03-20T04:07:00;5.95;;;5.35;;
45905;SDS011;31619;49.008;12.106;2023-03-20T04:09:26;5.72;;;5.32;;
45905;SDS011;31619;49.008;12.106;2023-03-20T04:11:53;6.03;;;5.53;;
45905;SDS011;31619;49.008;12.106;2023-03-20T04:14:19;9.73;;;5.22;;
45905;SDS011;31619;49.008;12.106;2023-03-20T04:16:45;5.60;;;5.07;;
45905;SDS011;31619;49.008;12.106;2023-03-20T04:19:10;6.03;;;5.43;;
45905;SDS011;31619;49.008;12.106;2023-03-20T04:21:36;5.57;;;5.15;;
45905;SDS011;31619;49.008;12.106;2023-03-20T04:24:02;5.75;;;5.32;;
45905;SDS011;31619;49.008;12.106;2023-03-20T04:26:28;5.05;;;4.65;;
45905;SDS011;31619;49.008;12.106;2023-03-20T04:28:53;5.43;;;4.93;;
45905;SDS011;31619;49.008;12.106;2023-03-20T04:31:19;4.95;;;4.55;;
45905;SDS011;31619;49.008;12.106;2023-03-20T04:33:51;5.50;;;5.00;;
45905;SDS011;31619;49.008;12.106;2023-03-20T04:36:17;5.93;;;5.43;;
45905;SDS011;31619;49.008;12.106;2023-03-20T04:38:42;5.28;;;4.88;;
45905;SDS011;31619;49.008;12.106;2023-03-20T04:41:08;5.43;;;5.03;;
45905;SDS011;31619;49.008;12.106;2023-03-20T04:43:33;5.28;;;4.78;;
45905;SDS011;31619;49.008;12.106;2023-03-20T04:45:59;7.80;;;5.88;;
45905;SDS011;31619;49.008;12.106;2023-03-20T04:48:25;6.55;;;5.20;;
45905;SDS011;31619;49.008;12.106;2023-03-20T04:50:52;6.55;;;5.15;;
45905;SDS011;31619;49.008;12.106;2023-03-20T04:53:17;5.85;;;5.35;;
45905;SDS011;31619;49.008;12.106;2023-03-20T04:55:43;7.45;;;6.45;;
45905;SDS011;31619;49.008;12.106;2023-03-20T04:58:10;7.40;;;5.20;;
45905;SDS011;31619;49.008;12.106;2023-03-20T05:00:36;6.68;;;6.03;;
45905;SDS011;31619;49.008;12.106;2023-03-20T05:03:02;5.50;;;5.00;;
45905;SDS011;31619;49.008;12.106;2023-03-20T05:05:28;6.90;;;5.53;;
45905;SDS011;31619;49.008;12.106;2023-03-20T05:07:53;7.35;;;5.80;;
45905;SDS011;31619;49.008;12.106;2023-03-20T05:10:20;5.40;;;4.90;;
45905;SDS011;31619;49.008;12.106;2023-03-20T05:12:46;5.30;;;4.85;;
45905;SDS011;31619;49.008;12.106;2023-03-20T05:15:12;5.45;;;5.05;;
45905;SDS011;31619;49.008;12.106;2023-03-20T05:17:38;5.43;;;4.93;;
45905;SDS011;31619;49.008;12.106;2023-03-20T05:20:04;6.40;;;5.80;;
45905;SDS011;31619;49.008;12.106;2023-03-20T05:22:30;8.88;;;7.20;;
45905;SDS011;31619;49.008;12.106;2023-03-20T05:24:56;7.15;;;6.45;;
45905;SDS011;31619;49.008;12.106;2023-03-20T05:27:21;6.85;;;6.20;;
45905;SDS011;31619;49.008;12.106;2023-03-20T05:29:47;9.50;;;7.90;;
45905;SDS011;31619;49.008;12.106;2023-03-20T05:32:13;10.63;;;8.10;;
45905;SDS011;31619;49.008;12.106;2023-03-20T05:34:38;12.50;;;7.82;;
45905;SDS011;31619;49.008;12.106;2023-03-20T05:37:04;8.20;;;6.93;;
45905;SDS011;31619;49.008;12.106;2023-03-20T05:39:30;8.45;;;7.47;;
45905;SDS011;31619;49.008;12.106;2023-03-20T05:41:55;6.85;;;6.15;;
45905;SDS011;31619;49.008;12.106;2023-03-20T05:44:21;6.78;;;5.43;;
45905;SDS011;31619;49.008;12.106;2023-03-20T05:46:46;6.07;;;5.47;;
45905;SDS011;31619;49.008;12.106;2023-03-20T05:49:12;6.53;;;5.25;;
45905;SDS011;31619;49.008;12.106;2023-03-20T05:51:37;7.15;;;5.90;;
45905;SDS011;31619;49.008;12.106;2023-03-20T05:54:03;6.68;;;5.60;;
45905;SDS011;31619;49.008;12.106;2023-03-20T05:56:29;6.82;;;5.90;;
45905;SDS011;31619;49.008;12.106;2023-03-20T05:58:55;5.82;;;5.32;;
45905;SDS011;31619;49.008;12.106;2023-03-20T06:01:21;7.72;;;5.60;;
45905;SDS011;31619;49.008;12.106;2023-03-20T06:03:47;5.85;;;5.35;;
45905;SDS011;31619;49.008;12.106;2023-03-20T06:06:13;6.28;;;5.05;;
45905;SDS011;31619;49.008;12.106;2023-03-20T06:08:39;5.40;;;4.90;;
45905;SDS011;31619;49.008;12.106;2023-03-20T06:11:05;5.95;;;5.35;;
45905;SDS011;31619;49.008;12.106;2023-03-20T06:13:32;5.70;;;5.20;;
45905;SDS011;31619;49.008;12.106;2023-03-20T06:15:57;5.95;;;5.32;;
45905;SDS011;31619;49.008;12.106;2023-03-20T06:18:23;5.97;;;5.10;;
45905;SDS011;31619;49.008;12.106;2023-03-20T06:20:52;6.70;;;5.43;;
45905;SDS011;31619;49.008;12.106;2023-03-20T06:23:19;7.35;;;6.03;;
45905;SDS011;31619;49.008;12.106;2023-03-20T06:25:44;5.95;;;5.45;;
45905;SDS011;31619;49.008;12.106;2023-03-20T06:28:10;6.65;;;5.72;;
45905;SDS011;31619;49.008;12.106;2023-03-20T06:30:36;7.47;;;6.38;;
45905;SDS011;31619;49.008;12.106;2023-03-20T06:33:02;7.47;;;5.95;;
45905;SDS011;31619;49.008;12.106;2023-03-20T06:35:30;6.65;;;6.03;;
45905;SDS011;31619;49.008;12.106;2023-03-20T06:37:56;8.95;;;6.60;;
45905;SDS011;31619;49.008;12.106;2023-03-20T06:40:25;9.70;;;6.57;;
45905;SDS011;31619;49.008;12.106;2023-03-20T06:42:51;6.82;;;6.20;;
45905;SDS011;31619;49.008;12.106;2023-03-20T06:45:18;8.05;;;6.28;;
45905;SDS011;31619;49.008;12.106;2023-03-20T06:47:44;10.25;;;6.43;;
45905;SDS011;31619;49.008;12.106;2023-03-20T06:50:11;6.72;;;6.15;;
45905;SDS011;31619;49.008;12.106;2023-03-20T06:52:37;8.18;;;6.88;;
45905;SDS011;31619;49.008;12.106;2023-03-20T06:55:03;8.90;;;8.00;;
45905;SDS011;31619;49.008;12.106;2023-03-20T06:57:30;11.30;;;7.35;;
45905;SDS011;31619;49.008;12.106;2023-03-20T06:59:56;7.68;;;6.97;;
45905;SDS011;31619;49.008;12.106;2023-03-20T07:02:22;8.35;;;7.38;;
45905;SDS011;31619;49.008;12.106;2023-03-20T07:04:48;7.70;;;7.00;;
45905;SDS011;31619;49.008;12.106;2023-03-20T07:07:13;8.43;;;7.28;;
45905;SDS011;31619;49.008;12.106;2023-03-20T07:09:39;7.28;;;6.57;;
45905;SDS011;31619;49.008;12.106;2023-03-20T07:12:08;8.80;;;6.30;;
45905;SDS011;31619;49.008;12.106;2023-03-20T07:14:38;7.75;;;6.40;;
45905;SDS011;31619;49.008;12.106;2023-03-20T07:17:06;8.77;;;6.68;;
45905;SDS011;31619;49.008;12.106;2023-03-20T07:19:35;6.57;;;5.95;;
45905;SDS011;31619;49.008;12.106;2023-03-20T07:22:02;6.10;;;5.50;;
45905;SDS011;31619;49.008;12.106;2023-03-20T07:24:30;6.88;;;6.18;;
45905;SDS011;31619;49.008;12.106;2023-03-20T07:26:56;16.70;;;6.43;;
45905;SDS011;31619;49.008;12.106;2023-03-20T07:29:22;9.85;;;6.47;;
45905;SDS011;31619;49.008;12.106;2023-03-20T07:31:48;8.95;;;5.47;;
45905;SDS011;31619;49.008;12.106;2023-03-20T07:34:14;5.22;;;4.82;;
45905;SDS011;31619;49.008;12.106;2023-03-20T07:36:40;4.47;;;4.18;;
45905;SDS011;31619;49.008;12.106;2023-03-20T07:39:08;4.45;;;4.15;;
45905;SDS011;31619;49.008;12.106;2023-03-20T07:41:35;24.17;;;8.93;;
45905;SDS011;31619;49.008;12.106;2023-03-20T07:44:01;4.82;;;4.43;;
45905;SDS011;31619;49.008;12.106;2023-03-20T07:46:34;4.32;;;4.03;;
45905;SDS011;31619;49.008;12.106;2023-03-20T07:49:00;4.03;;;3.72;;
45905;SDS011;31619;49.008;12.106;2023-03-20T07:51:26;4.53;;;4.22;;
45905;SDS011;31619;49.008;12.106;2023-03-20T07:53:51;4.95;;;4.65;;
45905;SDS011;31619;49.008;12.106;2023-03-20T07:56:17;4.18;;;3.88;;
45905;SDS011;31619;49.008;12.106;2023-03-20T07:58:43;4.80;;;4.43;;
45905;SDS011;31619;49.008;12.106;2023-03-20T08:01:08;4.75;;;4.35;;
45905;SDS011;31619;49.008;12.106;2023-03-20T08:03:34;4.32;;;4.03;;
45905;SDS011;31619;49.008;12.106;2023-03-20T08:06:00;4.60;;;4.30;;
45905;SDS011;31619;49.008;12.106;2023-03-20T08:08:25;4.50;;;4.20;;
45905;SDS011;31619;49.008;12.106;2023-03-20T08:10:51;4.60;;;4.30;;
45905;SDS011;31619;49.008;12.106;2023-03-20T08:13:17;5.95;;;3.95;;
45905;SDS011;31619;49.008;12.106;2023-03-20T08:15:42;3.95;;;3.65;;
45905;SDS011;31619;49.008;12.106;2023-03-20T08:18:08;4.05;;;3.72;;
45905;SDS011;31619;49.008;12.106;2023-03-20T08:20:34;3.83;;;3.47;;
45905;SDS011;31619;49.008;12.106;2023-03-20T08:23:00;4.43;;;3.92;;
45905;SDS011;31619;49.008;12.106;2023-03-20T08:25:26;4.03;;;3.55;;
45905;SDS011;31619;49.008;12.106;2023-03-20T08:27:56;3.90;;;3.47;;
45905;SDS011;31619;49.008;12.106;2023-03-20T08:30:22;4.53;;;4.18;;
45905;SDS011;31619;49.008;12.106;2023-03-20T08:32:47;4.00;;;3.58;;
45905;SDS011;31619;49.008;12.106;2023-03-20T08:35:13;3.60;;;3.30;;
45905;SDS011;31619;49.008;12.106;2023-03-20T08:37:39;5.90;;;3.38;;
45905;SDS011;31619;49.008;12.106;2023-03-20T08:40:04;3.60;;;3.30;;
45905;SDS011;31619;49.008;12.106;2023-03-20T08:42:30;2.90;;;2.75;;
45905;SDS011;31619;49.008;12.106;2023-03-20T08:44:59;3.90;;;2.97;;
45905;SDS011;31619;49.008;12.106;2023-03-20T08:47:25;3.20;;;3.00;;
45905;SDS011;31619;49.008;12.106;2023-03-20T08:49:51;4.43;;;3.55;;
45905;SDS011;31619;49.008;12.106;2023-03-20T08:52:16;3.00;;;2.70;;
45905;SDS011;31619;49.008;12.106;2023-03-20T08:54:42;3.67;;;3.40;;
45905;SDS011;31619;49.008;12.106;2023-03-20T08:57:08;4.65;;;3.10;;
45905;SDS011;31619;49.008;12.106;2023-03-20T08:59:33;3.20;;;3.00;;
45905;SDS011;31619;49.008;12.106;2023-03-20T09:01:59;2.70;;;2.50;;
45905;SDS011;31619;49.008;12.106;2023-03-20T09:04:25;2.90;;;2.70;;
45905;SDS011;31619;49.008;12.106;2023-03-20T09:06:51;2.65;;;2.55;;
45905;SDS011;31619;49.008;12.106;2023-03-20T09:09:17;2.67;;;2.50;;
45905;SDS011;31619;49.008;12.106;2023-03-20T09:11:45;2.25;;;2.15;;
45905;SDS011;31619;49.008;12.106;2023-03-20T09:14:11;3.22;;;3.03;;
45905;SDS011;31619;49.008;12.106;2023-03-20T09:16:36;2.15;;;2.05;;
45905;SDS011;31619;49.008;12.106;2023-03-20T09:19:02;2.35;;;2.25;;
45905;SDS011;31619;49.008;12.106;2023-03-20T09:21:28;2.63;;;2.53;;
45905;SDS011;31619;49.008;12.106;2023-03-20T09:23:53;2.72;;;2.60;;
45905;SDS011;31619;49.008;12.106;2023-03-20T09:26:19;2.35;;;2.10;;
45905;SDS011;31619;49.008;12.106;2023-03-20T09:28:44;2.80;;;2.60;;
45905;SDS011;31619;49.008;12.106;2023-03-20T09:31:10;2.58;;;2.38;;
45905;SDS011;31619;49.008;12.106;2023-03-20T09:33:36;2.33;;;2.20;;
45905;SDS011;31619;49.008;12.106;2023-03-20T09:36:01;2.33;;;2.22;;
45905;SDS011;31619;49.008;12.106;2023-03-20T09:38:28;2.40;;;2.30;;
45905;SDS011;31619;49.008;12.106;2023-03-20T09:40:57;2.60;;;2.40;;
45905;SDS011;31619;49.008;12.106;2023-03-20T09:43:32;2.70;;;2.50;;
45905;SDS011;31619;49.008;12.106;2023-03-20T09:48:38;3.00;;;2.80;;
45905;SDS011;31619;49.008;12.106;2023-03-20T09:51:20;2.53;;;2.42;;
45905;SDS011;31619;49.008;12.106;2023-03-20T09:53:56;2.08;;;1.98;;
45905;SDS011;31619;49.008;12.106;2023-03-20T09:56:29;2.13;;;2.03;;
45905;SDS011;31619;49.008;12.106;2023-03-20T09:59:00;2.17;;;2.08;;
45905;SDS011;31619;49.008;12.106;2023-03-20T10:04:11;2.65;;;2.45;;
45905;SDS011;31619;49.008;12.106;2023-03-20T10:06:37;2.08;;;1.98;;
45905;SDS011;31619;49.008;12.106;2023-03-20T10:09:21;2.08;;;1.98;;
45905;SDS011;31619;49.008;12.106;2023-03-20T10:12:12;2.00;;;1.90;;
45905;SDS011;31619;49.008;12.106;2023-03-20T10:20:28;1.67;;;1.60;;
45905;SDS011;31619;49.008;12.106;2023-03-20T10:25:29;1.20;;;1.20;;
45905;SDS011;31619;49.008;12.106;2023-03-20T10:27:59;1.70;;;1.60;;
45905;SDS011;31619;49.008;12.106;2023-03-20T10:39:09;1.33;;;1.33;;
45905;SDS011;31619;49.008;12.106;2023-03-20T10:41:46;2.00;;;1.70;;
45905;SDS011;31619;49.008;12.106;2023-03-20T10:44:21;2.17;;;1.63;;
45905;SDS011;31619;49.008;12.106;2023-03-20T10:46:55;1.45;;;1.45;;
45905;SDS011;31619;49.008;12.106;2023-03-20T10:49:29;1.40;;;1.40;;
45905;SDS011;31619;49.008;12.106;2023-03-20T10:52:21;1.65;;;1.55;;
45905;SDS011;31619;49.008;12.106;2023-03-20T10:54:57;1.58;;;1.48;;
45905;SDS011;31619;49.008;12.106;2023-03-20T10:57:35;1.15;;;1.15;;
45905;SDS011;31619;49.008;12.106;2023-03-20T11:00:06;3.08;;;1.23;;
45905;SDS011;31619;49.008;12.106;2023-03-20T11:02:38;1.15;;;1.15;;
45905;SDS011;31619;49.008;12.106;2023-03-20T11:05:23;1.10;;;1.10;;
45905;SDS011;31619;49.008;12.106;2023-03-20T11:10:32;1.38;;;1.00;;
45905;SDS011;31619;49.008;12.106;2023-03-20T11:13:03;0.90;;;0.90;;
45905;SDS011;31619;49.008;12.106;2023-03-20T11:15:40;1.27;;;1.27;;
45905;SDS011;31619;49.008;12.106;2023-03-20T11:18:08;1.30;;;1.20;;
45905;SDS011;31619;49.008;12.106;2023-03-20T11:20:43;1.45;;;1.35;;
45905;SDS011;31619;49.008;12.106;2023-03-20T11:23:10;1.33;;;1.25;;
45905;SDS011;31619;49.008;12.106;2023-03-20T11:26:31;1.40;;;1.35;;
45905;SDS011;31619;49.008;12.106;2023-03-20T11:28:37;1.60;;;1.50;;
45905;SDS011;31619;49.008;12.106;2023-03-20T11:36:39;1.30;;;1.30;;
45905;SDS011;31619;49.008;12.106;2023-03-20T11:39:26;1.40;;;1.40;;
45905;SDS011;31619;49.008;12.106;2023-03-20T11:41:56;1.50;;;1.40;;
45905;SDS011;31619;49.008;12.106;2023-03-20T11:44:24;1.42;;;1.33;;
45905;SDS011;31619;49.008;12.106;2023-03-20T11:47:02;1.83;;;1.73;;
45905;SDS011;31619;49.008;12.106;2023-03-20T11:49:46;1.35;;;1.35;;
45905;SDS011;31619;49.008;12.106;2023-03-20T11:52:26;2.30;;;1.42;;
45905;SDS011;31619;49.008;12.106;2023-03-20T11:54:56;1.45;;;1.45;;
45905;SDS011;31619;49.008;12.106;2023-03-20T11:59:56;1.08;;;1.08;;
45905;SDS011;31619;49.008;12.106;2023-03-20T12:02:24;1.15;;;1.15;;
45905;SDS011;31619;49.008;12.106;2023-03-20T12:04:51;1.10;;;1.10;;
45905;SDS011;31619;49.008;12.106;2023-03-20T12:07:18;1.13;;;1.10;;
45905;SDS011;31619;49.008;12.106;2023-03-20T12:09:51;1.20;;;1.10;;
45905;SDS011;31619;49.008;12.106;2023-03-20T12:15:24;1.10;;;1.10;;
45905;SDS011;31619;49.008;12.106;2023-03-20T12:31:23;1.60;;;1.45;;
45905;SDS011;31619;49.008;12.106;2023-03-20T12:33:59;1.40;;;1.40;;
45905;SDS011;31619;49.008;12.106;2023-03-20T12:36:38;1.40;;;1.30;;
45905;SDS011;31619;49.008;12.106;2023-03-20T12:39:11;1.52;;;1.52;;
45905;SDS011;31619;49.008;12.106;2023-03-20T12:41:47;2.03;;;1.98;;
45905;SDS011;31619;49.008;12.106;2023-03-20T12:44:33;2.53;;;2.33;;
45905;SDS011;31619;49.008;12.106;2023-03-20T12:50:24;2.85;;;2.40;;
45905;SDS011;31619;49.008;12.106;2023-03-20T12:56:05;2.28;;;2.17;;
45905;SDS011;31619;49.008;12.106;2023-03-20T12:59:07;2.30;;;2.20;;
45905;SDS011;31619;49.008;12.106;2023-03-20T13:07:20;2.00;;;1.90;;
45905;SDS011;31619;49.008;12.106;2023-03-20T13:10:04;1.60;;;1.60;;
45905;SDS011;31619;49.008;12.106;2023-03-20T13:24:31;1.85;;;1.75;;
45905;SDS011;31619;49.008;12.106;2023-03-20T13:29:43;1.70;;;1.60;;
45905;SDS011;31619;49.008;12.106;2023-03-20T13:37:48;1.25;;;1.25;;
45905;SDS011;31619;49.008;12.106;2023-03-20T13:40:21;1.55;;;1.45;;
45905;SDS011;31619;49.008;12.106;2023-03-20T13:45:43;1.75;;;1.67;;
45905;SDS011;31619;49.008;12.106;2023-03-20T13:53:35;1.23;;;1.23;;
45905;SDS011;31619;49.008;12.106;2023-03-20T13:56:19;1.48;;;1.38;;
45905;SDS011;31619;49.008;12.106;2023-03-20T14:04:24;1.30;;;1.30;;
45905;SDS011;31619;49.008;12.106;2023-03-20T14:06:52;1.33;;;1.30;;
45905;SDS011;31619;49.008;12.106;2023-03-20T14:09:23;2.08;;;1.33;;
45905;SDS011;31619;49.008;12.106;2023-03-20T14:11:55;1.63;;;1.52;;
45905;SDS011;31619;49.008;12.106;2023-03-20T14:17:29;1.45;;;1.45;;
45905;SDS011;31619;49.008;12.106;2023-03-20T14:19:48;1.33;;;1.23;;
45905;SDS011;31619;49.008;12.106;2023-03-20T14:22:16;1.27;;;1.25;;
45905;SDS011;31619;49.008;12.106;2023-03-20T14:24:53;1.55;;;1.45;;
45905;SDS011;31619;49.008;12.106;2023-03-20T14:27:26;1.67;;;1.58;;
45905;SDS011;31619;49.008;12.106;2023-03-20T14:29:53;1.80;;;1.70;;
45905;SDS011;31619;49.008;12.106;2023-03-20T14:37:35;1.38;;;1.27;;
45905;SDS011;31619;49.008;12.106;2023-03-20T14:42:39;1.30;;;1.27;;
45905;SDS011;31619;49.008;12.106;2023-03-20T14:48:16;2.45;;;1.52;;
45905;SDS011;31619;49.008;12.106;2023-03-20T14:51:06;1.25;;;1.25;;
45905;SDS011;31619;49.008;12.106;2023-03-20T14:53:57;1.30;;;1.30;;
45905;SDS011;31619;49.008;12.106;2023-03-20T14:56:45;1.23;;;1.23;;
45905;SDS011;31619;49.008;12.106;2023-03-20T14:59:11;1.83;;;1.52;;
45905;SDS011;31619;49.008;12.106;2023-03-20T15:04:12;1.13;;;1.13;;
45905;SDS011;31619;49.008;12.106;2023-03-20T15:06:44;1.60;;;1.50;;
45905;SDS011;31619;49.008;12.106;2023-03-20T15:09:15;1.45;;;1.35;;
45905;SDS011;31619;49.008;12.106;2023-03-20T15:11:44;1.80;;;1.70;;
45905;SDS011;31619;49.008;12.106;2023-03-20T15:14:12;1.20;;;1.20;;
45905;SDS011;31619;49.008;12.106;2023-03-20T15:16:47;1.23;;;1.23;;
45905;SDS011;31619;49.008;12.106;2023-03-20T15:19:25;1.75;;;1.65;;
45905;SDS011;31619;49.008;12.106;2023-03-20T15:21:51;1.60;;;1.50;;
45905;SDS011;31619;49.008;12.106;2023-03-20T15:24:22;1.75;;;1.65;;
45905;SDS011;31619;49.008;12.106;2023-03-20T15:26:51;1.85;;;1.75;;
45905;SDS011;31619;49.008;12.106;2023-03-20T15:29:19;1.73;;;1.58;;
45905;SDS011;31619;49.008;12.106;2023-03-20T15:31:45;1.83;;;1.50;;
45905;SDS011;31619;49.008;12.106;2023-03-20T15:34:19;1.52;;;1.48;;
45905;SDS011;31619;49.008;12.106;2023-03-20T15:36:47;2.03;;;1.92;;
45905;SDS011;31619;49.008;12.106;2023-03-20T15:39:15;1.75;;;1.65;;
45905;SDS011;31619;49.008;12.106;2023-03-20T15:44:34;1.80;;;1.70;;
45905;SDS011;31619;49.008;12.106;2023-03-20T15:47:03;2.60;;;2.42;;
45905;SDS011;31619;49.008;12.106;2023-03-20T15:49:38;1.08;;;1.08;;
45905;SDS011;31619;49.008;12.106;2023-03-20T15:52:50;2.28;;;1.50;;
45905;SDS011;31619;49.008;12.106;2023-03-20T15:54:57;1.63;;;1.52;;
45905;SDS011;31619;49.008;12.106;2023-03-20T15:57:28;1.60;;;1.60;;
45905;SDS011;31619;49.008;12.106;2023-03-20T15:59:58;1.60;;;1.50;;
45905;SDS011;31619;49.008;12.106;2023-03-20T16:02:24;1.40;;;1.40;;
45905;SDS011;31619;49.008;12.106;2023-03-20T16:04:53;2.80;;;1.40;;
45905;SDS011;31619;49.008;12.106;2023-03-20T16:07:30;1.50;;;1.40;;
45905;SDS011;31619;49.008;12.106;2023-03-20T16:09:57;1.10;;;1.10;;
45905;SDS011;31619;49.008;12.106;2023-03-20T16:12:23;1.73;;;1.63;;
45905;SDS011;31619;49.008;12.106;2023-03-20T16:14:50;1.20;;;1.20;;
45905;SDS011;31619;49.008;12.106;2023-03-20T16:17:17;1.50;;;1.40;;
45905;SDS011;31619;49.008;12.106;2023-03-20T16:19:46;0.90;;;0.90;;
45905;SDS011;31619;49.008;12.106;2023-03-20T16:22:16;1.25;;;1.20;;
45905;SDS011;31619;49.008;12.106;2023-03-20T16:24:44;1.90;;;1.80;;
45905;SDS011;31619;49.008;12.106;2023-03-20T16:27:13;1.27;;;1.27;;
45905;SDS011;31619;49.008;12.106;2023-03-20T16:29:49;1.85;;;1.70;;
45905;SDS011;31619;49.008;12.106;2023-03-20T16:32:33;2.50;;;1.50;;
45905;SDS011;31619;49.008;12.106;2023-03-20T16:35:06;2.85;;;2.40;;
45905;SDS011;31619;49.008;12.106;2023-03-20T16:37:47;1.33;;;1.33;;
45905;SDS011;31619;49.008;12.106;2023-03-20T16:43:13;3.08;;;2.67;;
45905;SDS011;31619;49.008;12.106;2023-03-20T16:45:45;1.50;;;1.40;;
45905;SDS011;31619;49.008;12.106;2023-03-20T16:50:59;1.60;;;1.50;;
45905;SDS011;31619;49.008;12.106;2023-03-20T16:53:35;1.50;;;1.50;;
45905;SDS011;31619;49.008;12.106;2023-03-20T16:56:09;2.40;;;1.20;;
45905;SDS011;31619;49.008;12.106;2023-03-20T16:58:43;2.20;;;2.00;;
45905;SDS011;31619;49.008;12.106;2023-03-20T17:01:14;1.95;;;1.85;;
45905;SDS011;31619;49.008;12.106;2023-03-20T17:03:45;1.65;;;1.10;;
45905;SDS011;31619;49.008;12.106;2023-03-20T17:11:18;1.90;;;1.80;;
45905;SDS011;31619;49.008;12.106;2023-03-20T17:13:54;1.80;;;1.70;;
45905;SDS011;31619;49.008;12.106;2023-03-20T17:16:20;3.55;;;1.65;;
45905;SDS011;31619;49.008;12.106;2023-03-20T17:19:00;1.30;;;1.30;;
45905;SDS011;31619;49.008;12.106;2023-03-20T17:21:28;2.00;;;1.80;;
45905;SDS011;31619;49.008;12.106;2023-03-20T17:23:55;3.50;;;1.83;;
45905;SDS011;31619;49.008;12.106;2023-03-20T17:26:21;1.77;;;1.67;;
45905;SDS011;31619;49.008;12.106;2023-03-20T17:28:47;2.78;;;1.88;;
45905;SDS011;31619;49.008;12.106;2023-03-20T17:31:14;1.80;;;1.70;;
45905;SDS011;31619;49.008;12.106;2023-03-20T17:33:41;1.80;;;1.70;;
45905;SDS011;31619;49.008;12.106;2023-03-20T17:36:18;2.10;;;2.00;;
45905;SDS011;31619;49.008;12.106;2023-03-20T17:38:50;1.98;;;1.88;;